createdAt,value
2018-05-24T00:01:23.655Z,81.01
2018-05-24T00:04:25.711Z,81.35
2018-05-24T00:07:27.816Z,81.43
2018-05-24T00:10:30.619Z,81.08
2018-05-24T00:13:32.629Z,81.49
2018-05-24T00:16:34.747Z,81.22
2018-05-24T00:19:37.804Z,81.05
2018-05-24T00:22:39.764Z,80.64
2018-05-24T00:25:41.847Z,81.01
2018-05-24T00:28:43.914Z,81.04
2018-05-24T00:31:45.852Z,81.01
2018-05-24T00:34:47.947Z,81.08
2018-05-24T00:37:50.023Z,80.95
2018-05-24T00:40:52.116Z,80.70
2018-05-24T00:43:54.129Z,80.38
2018-05-24T00:46:56.207Z,79.61
2018-05-24T00:49:58.323Z,80.15
2018-05-24T00:53:01.084Z,80.22
2018-05-24T00:56:03.171Z,80.61
2018-05-24T00:59:05.357Z,80.67
2018-05-24T01:02:07.367Z,80.56
2018-05-24T01:05:09.495Z,80.39
2018-05-24T01:08:11.432Z,79.81
2018-05-24T01:11:13.495Z,79.47
2018-05-24T01:14:15.607Z,80.46
2018-05-24T01:17:17.728Z,80.46
2018-05-24T01:20:19.949Z,80.15
2018-05-24T01:23:21.974Z,80.04
2018-05-24T01:26:24.024Z,80.45
2018-05-24T01:29:26.001Z,80.34
2018-05-24T01:32:28.075Z,80.59
2018-05-24T01:35:30.135Z,80.59
2018-05-24T01:38:33.212Z,81.20
2018-05-24T01:41:35.325Z,81.53
2018-05-24T01:44:37.380Z,81.64
2018-05-24T01:47:39.435Z,80.97
2018-05-24T01:50:41.532Z,81.08
2018-05-24T01:53:43.542Z,81.55
2018-05-24T01:56:47.088Z,81.43
2018-05-24T01:59:49.149Z,81.17
2018-05-24T02:02:51.242Z,81.40
2018-05-24T02:05:53.409Z,81.08
2018-05-24T02:08:55.348Z,81.24
2018-05-24T02:11:57.418Z,81.47
2018-05-24T02:14:59.508Z,80.93
2018-05-24T02:18:02.460Z,80.82
2018-05-24T02:21:04.583Z,81.08
2018-05-24T02:24:06.643Z,81.27
2018-05-24T02:27:08.681Z,80.72
2018-05-24T02:30:10.772Z,81.06
2018-05-24T02:33:12.808Z,81.01
2018-05-24T02:36:14.885Z,80.62
2018-05-24T02:39:16.984Z,80.65
2018-05-24T02:42:19.040Z,80.62
2018-05-24T02:45:21.104Z,80.78
2018-05-24T02:48:23.172Z,80.24
2018-05-24T02:51:26.284Z,80.50
2018-05-24T02:54:28.337Z,80.41
2018-05-24T02:57:30.400Z,80.59
2018-05-24T03:00:33.492Z,80.88
2018-05-24T03:03:35.667Z,81.19
2018-05-24T03:06:37.746Z,81.10
2018-05-24T03:09:39.777Z,81.34
2018-05-24T03:12:41.788Z,81.00
2018-05-24T03:15:43.840Z,81.05
2018-05-24T03:18:46.225Z,81.10
2018-05-24T03:21:48.281Z,81.01
2018-05-24T03:24:50.344Z,80.92
2018-05-24T03:27:52.396Z,80.54
2018-05-24T03:30:54.357Z,80.14
2018-05-24T03:33:56.451Z,80.08
2018-05-24T03:36:58.519Z,80.50
2018-05-24T03:40:00.564Z,81.06
2018-05-24T03:43:03.747Z,81.86
2018-05-24T03:46:05.745Z,81.88
2018-05-24T03:49:07.864Z,81.36
2018-05-24T03:52:10.030Z,81.25
2018-05-24T03:55:12.078Z,82.13
2018-05-24T03:58:14.122Z,81.89
2018-05-24T04:02:28.733Z,82.01
2018-05-24T04:05:30.799Z,81.96
2018-05-24T04:08:33.859Z,81.96
2018-05-24T04:11:35.986Z,82.08
2018-05-24T04:14:38.095Z,81.84
2018-05-24T04:17:40.161Z,82.18
2018-05-24T04:20:42.234Z,81.70
2018-05-24T04:23:44.310Z,81.30
2018-05-24T04:26:46.348Z,81.62
2018-05-24T04:29:48.447Z,81.61
2018-05-24T04:32:50.535Z,81.69
2018-05-24T04:35:52.580Z,81.08
2018-05-24T04:38:55.697Z,81.80
2018-05-24T04:41:57.752Z,81.75
2018-05-24T04:44:59.811Z,81.67
2018-05-24T04:48:03.011Z,81.80
2018-05-24T04:51:05.063Z,81.53
2018-05-24T04:54:07.180Z,81.40
2018-05-24T04:57:09.365Z,81.22
2018-05-24T05:00:12.552Z,81.19
2018-05-24T05:03:14.720Z,80.72
2018-05-24T05:06:16.886Z,81.41
2018-05-24T05:09:18.969Z,81.06
2018-05-24T05:12:21.123Z,80.85
2018-05-24T05:15:23.136Z,81.83
2018-05-24T05:18:25.297Z,82.15
2018-05-24T05:21:27.436Z,82.24
2018-05-24T05:24:29.720Z,81.94
2018-05-24T05:27:33.007Z,81.83
2018-05-24T05:30:35.372Z,81.98
2018-05-24T05:33:37.362Z,81.67
2018-05-24T05:36:39.410Z,81.48
2018-05-24T05:39:41.590Z,81.86
2018-05-24T05:42:43.644Z,81.46
2018-05-24T05:45:45.777Z,81.64
2018-05-24T05:48:47.881Z,82.04
2018-05-24T05:51:50.068Z,82.32
2018-05-24T05:54:52.051Z,83.01
2018-05-24T05:57:54.051Z,83.35
2018-05-24T06:00:56.156Z,83.45
2018-05-24T06:03:58.313Z,82.29
2018-05-24T06:07:00.448Z,81.63
2018-05-24T06:10:03.619Z,82.05
2018-05-24T06:13:05.615Z,81.67
2018-05-24T06:16:07.687Z,81.05
2018-05-24T06:19:09.831Z,81.21
2018-05-24T06:22:11.859Z,80.87
2018-05-24T06:25:13.958Z,81.06
2018-05-24T06:28:16.110Z,81.21
2018-05-24T06:31:18.293Z,81.06
2018-05-24T06:34:20.346Z,80.81
2018-05-24T06:37:22.496Z,80.76
2018-05-24T06:40:24.585Z,80.71
2018-05-24T06:43:28.808Z,81.19
2018-05-24T06:46:31.002Z,81.10
2018-05-24T06:49:33.516Z,80.55
2018-05-24T06:52:35.628Z,80.53
2018-05-24T06:55:37.595Z,80.00
2018-05-24T06:58:40.677Z,80.37
2018-05-24T07:01:42.751Z,80.26
2018-05-24T07:04:44.908Z,79.95
2018-05-24T07:07:48.044Z,79.61
2018-05-24T07:10:50.099Z,79.54
2018-05-24T07:13:52.271Z,79.18
2018-05-24T07:16:54.423Z,79.27
2018-05-24T07:19:56.455Z,79.04
2018-05-24T07:22:58.504Z,79.12
2018-05-24T07:26:00.513Z,79.08
2018-05-24T07:29:04.016Z,78.60
2018-05-24T07:32:06.104Z,78.57
2018-05-24T07:35:08.132Z,78.25
2018-05-24T07:38:10.100Z,78.08
2018-05-24T07:41:12.180Z,77.78
2018-05-24T07:44:14.209Z,77.67
2018-05-24T07:47:16.244Z,77.77
2018-05-24T07:50:18.292Z,77.50
2018-05-24T07:53:20.372Z,77.50
2018-05-24T07:56:22.517Z,76.98
2018-05-24T07:59:24.608Z,76.63
2018-05-24T08:02:26.663Z,76.34
2018-05-24T08:05:28.865Z,76.65
2018-05-24T08:08:30.869Z,76.25
2018-05-24T08:11:33.738Z,76.46
2018-05-24T08:14:35.769Z,75.46
2018-05-24T08:17:37.795Z,74.82
2018-05-24T08:20:39.778Z,74.39
2018-05-24T08:23:41.890Z,74.93
2018-05-24T08:26:44.090Z,75.10
2018-05-24T08:29:46.226Z,75.24
2018-05-24T08:32:48.262Z,74.76
2018-05-24T08:35:50.336Z,74.75
2018-05-24T08:38:52.614Z,74.12
2018-05-24T08:41:54.693Z,74.03
2018-05-24T08:44:56.731Z,72.15
2018-05-24T08:47:58.841Z,72.22
2018-05-24T08:51:00.996Z,71.37
2018-05-24T08:54:04.772Z,71.02
2018-05-24T08:57:06.844Z,70.04
2018-05-24T09:00:08.935Z,67.94
2018-05-24T09:03:11.034Z,69.32
2018-05-24T09:06:13.181Z,70.26
2018-05-24T09:09:15.115Z,70.24
2018-05-24T09:12:17.189Z,68.52
2018-05-24T09:15:19.283Z,69.03
2018-05-24T09:18:21.443Z,69.56
2018-05-24T09:21:23.523Z,69.40
2018-05-24T09:24:25.587Z,70.33
2018-05-24T09:27:27.673Z,69.16
2018-05-24T09:30:29.738Z,69.41
2018-05-24T09:33:31.775Z,67.46
2018-05-24T09:36:34.918Z,67.76
2018-05-24T09:39:36.935Z,67.49
2018-05-24T09:42:38.999Z,68.27
2018-05-24T09:45:41.118Z,68.82
2018-05-24T09:48:43.162Z,70.31
2018-05-24T09:51:45.228Z,70.31
2018-05-24T09:54:47.146Z,70.83
2018-05-24T09:57:49.164Z,70.15
2018-05-24T10:00:51.372Z,69.30
2018-05-24T10:03:53.391Z,69.76
2018-05-24T10:06:55.698Z,69.43
2018-05-24T10:09:58.769Z,68.48
2018-05-24T10:13:01.790Z,67.22
2018-05-24T10:16:03.856Z,68.10
2018-05-24T10:19:06.635Z,68.07
2018-05-24T10:22:08.672Z,67.33
2018-05-24T10:25:10.784Z,68.18
2018-05-24T10:28:12.851Z,68.83
2018-05-24T10:31:14.907Z,67.66
2018-05-24T10:34:17.264Z,67.72
2018-05-24T10:37:19.202Z,66.95
2018-05-24T10:40:23.168Z,67.24
2018-05-24T10:43:25.315Z,66.25
2018-05-24T10:46:27.375Z,65.10
2018-05-24T10:49:29.440Z,64.38
2018-05-24T10:52:31.499Z,65.75
2018-05-24T10:55:33.590Z,65.90
2018-05-24T10:58:36.697Z,66.19
2018-05-24T11:01:40.831Z,63.53
2018-05-24T11:04:42.835Z,63.75
2018-05-24T11:07:44.935Z,63.19
2018-05-24T11:10:46.963Z,62.29
2018-05-24T11:13:49.088Z,62.28
2018-05-24T11:16:51.156Z,61.26
2018-05-24T11:19:53.207Z,59.71
2018-05-24T11:22:55.452Z,59.44
2018-05-24T11:25:57.479Z,60.37
2018-05-24T11:28:59.532Z,58.95
2018-05-24T11:32:01.701Z,61.59
2018-05-24T11:35:03.673Z,59.86
2018-05-24T11:38:06.860Z,59.82
2018-05-24T11:41:08.924Z,60.21
2018-05-24T11:44:11.047Z,59.03
2018-05-24T11:47:13.151Z,58.60
2018-05-24T11:50:15.314Z,59.32
2018-05-24T11:53:17.411Z,59.66
2018-05-24T11:56:19.444Z,59.82
2018-05-24T11:59:21.502Z,60.50
2018-05-24T12:02:23.508Z,60.30
2018-05-24T12:05:25.490Z,59.44
2018-05-24T12:08:27.440Z,60.63
2018-05-24T12:11:29.435Z,59.88
2018-05-24T12:14:31.644Z,60.25
2018-05-24T12:17:33.762Z,60.62
2018-05-24T12:20:36.631Z,58.47
2018-05-24T12:23:38.746Z,59.28
2018-05-24T12:26:40.828Z,59.04
2018-05-24T12:29:42.815Z,59.91
2018-05-24T12:32:44.828Z,58.86
2018-05-24T12:35:46.847Z,59.19
2018-05-24T12:38:48.952Z,58.47
2018-05-24T12:41:51.067Z,58.38
2018-05-24T12:44:53.010Z,56.90
2018-05-24T12:47:55.058Z,58.24
2018-05-24T12:50:57.125Z,56.04
2018-05-24T12:53:59.244Z,56.16
2018-05-24T12:57:02.395Z,56.63
2018-05-24T13:00:06.758Z,55.28
2018-05-24T13:03:08.879Z,56.67
2018-05-24T13:06:10.932Z,56.73
2018-05-24T13:09:12.891Z,55.35
2018-05-24T13:12:14.969Z,54.79
2018-05-24T13:15:17.040Z,55.56
2018-05-24T13:18:18.954Z,54.09
2018-05-24T13:21:20.935Z,55.70
2018-05-24T13:24:24.849Z,55.36
2018-05-24T13:27:26.982Z,54.75
2018-05-24T13:30:29.171Z,56.86
2018-05-24T13:33:31.183Z,58.49
2018-05-24T13:36:33.255Z,58.30
2018-05-24T13:39:36.028Z,58.12
2018-05-24T13:42:38.116Z,57.64
2018-05-24T13:45:40.180Z,57.46
2018-05-24T13:48:42.244Z,57.59
2018-05-24T13:51:44.326Z,57.89
2018-05-24T13:54:46.289Z,57.27
2018-05-24T13:57:48.415Z,58.04
2018-05-24T14:00:50.876Z,57.39
2018-05-24T14:03:52.969Z,57.51
2018-05-24T14:06:55.062Z,58.50
2018-05-24T14:09:57.289Z,58.62
2018-05-24T14:12:59.413Z,58.54
2018-05-24T14:16:01.565Z,58.41
2018-05-24T14:19:03.822Z,59.04
2018-05-24T14:22:06.783Z,58.86
2018-05-24T14:25:08.985Z,58.59
2018-05-24T14:28:11.140Z,59.10
2018-05-24T14:31:13.212Z,58.62
2018-05-24T14:34:16.608Z,58.58
2018-05-24T14:37:18.680Z,59.42
2018-05-24T14:40:21.432Z,58.68
2018-05-24T14:43:23.416Z,58.59
2018-05-24T14:46:25.691Z,56.50
2018-05-24T14:49:27.688Z,56.49
2018-05-24T14:52:29.828Z,56.42
2018-05-24T14:55:31.829Z,55.98
2018-05-24T14:58:33.887Z,57.03
2018-05-24T15:01:37.052Z,56.70
2018-05-24T15:04:39.163Z,55.59
2018-05-24T15:07:41.223Z,56.03
2018-05-24T15:10:43.544Z,55.52
2018-05-24T15:13:49.950Z,55.56
2018-05-24T15:16:52.405Z,55.38
2018-05-24T15:19:54.486Z,55.68
2018-05-24T15:22:56.627Z,56.97
2018-05-24T15:25:59.779Z,55.44
2018-05-24T15:29:01.896Z,55.86
2018-05-24T15:32:04.008Z,55.63
2018-05-24T15:35:07.155Z,55.61
2018-05-24T15:38:10.395Z,57.16
2018-05-24T15:41:20.983Z,56.81
2018-05-24T15:44:23.008Z,57.01
2018-05-24T15:47:27.300Z,57.12
2018-05-24T15:50:29.450Z,56.51
2018-05-24T15:53:31.560Z,58.32
2018-05-24T15:56:33.627Z,58.20
2018-05-24T15:59:35.751Z,58.53
2018-05-24T16:02:39.649Z,58.24
2018-05-24T16:05:41.749Z,57.55
2018-05-24T16:08:43.893Z,57.40
2018-05-24T16:11:46.009Z,56.96
2018-05-24T16:14:48.117Z,57.36
2018-05-24T16:17:50.395Z,56.76
2018-05-24T16:20:52.555Z,56.77
2018-05-24T16:23:54.782Z,56.50
2018-05-24T16:26:57.007Z,56.23
2018-05-24T16:29:59.236Z,55.71
2018-05-24T16:33:01.336Z,55.14
2018-05-24T16:36:03.707Z,54.22
2018-05-24T16:39:05.910Z,53.67
2018-05-24T16:42:08.192Z,54.01
2018-05-24T16:45:10.387Z,52.62
2018-05-24T16:48:12.640Z,51.93
2018-05-24T16:51:15.899Z,52.37
2018-05-24T16:54:19.042Z,53.43
2018-05-24T16:57:21.198Z,54.72
2018-05-24T17:00:24.333Z,56.21
2018-05-24T17:03:26.449Z,56.47
2018-05-24T17:06:28.769Z,57.78
2018-05-24T17:09:30.814Z,58.74
2018-05-24T17:12:34.080Z,59.22
2018-05-24T17:15:36.828Z,59.70
2018-05-24T17:18:39.008Z,60.09
2018-05-24T17:21:41.309Z,59.84
2018-05-24T17:24:43.411Z,60.41
2018-05-24T17:27:45.607Z,60.24
2018-05-24T17:30:47.645Z,60.50
2018-05-24T17:33:49.830Z,60.00
2018-05-24T17:36:52.097Z,60.04
2018-05-24T17:39:54.311Z,59.55
2018-05-24T17:42:56.435Z,60.00
2018-05-24T17:45:59.534Z,60.23
2018-05-24T17:49:01.680Z,60.66
2018-05-24T17:52:04.866Z,60.71
2018-05-24T17:55:06.843Z,61.12
2018-05-24T17:58:09.112Z,61.24
2018-05-24T18:01:11.180Z,61.51
2018-05-24T18:04:13.222Z,61.82
2018-05-24T18:11:22.119Z,62.12
2018-05-24T18:14:24.155Z,61.88
2018-05-24T18:17:27.275Z,61.90
2018-05-24T18:20:29.390Z,61.84
2018-05-24T18:23:31.532Z,61.96
2018-05-24T18:26:34.068Z,61.95
2018-05-24T18:29:36.136Z,62.21
2018-05-24T18:32:38.962Z,61.95
2018-05-24T18:35:42.050Z,62.21
2018-05-24T18:38:44.208Z,62.39
2018-05-24T18:41:46.275Z,62.59
2018-05-24T18:44:49.331Z,62.81
2018-05-24T18:47:51.291Z,63.01
2018-05-24T18:50:53.399Z,63.05
2018-05-24T18:53:55.495Z,63.19
2018-05-24T18:56:57.668Z,63.36
2018-05-24T18:59:59.796Z,63.25
2018-05-24T19:03:02.044Z,63.72
2018-05-24T19:06:04.069Z,63.57
2018-05-24T19:09:06.208Z,63.84
2018-05-24T19:12:08.480Z,64.24
2018-05-24T19:15:10.549Z,64.60
2018-05-24T19:18:12.675Z,64.66
2018-05-24T19:21:14.684Z,65.00
2018-05-24T19:24:16.779Z,65.70
2018-05-24T19:27:18.911Z,65.90
2018-05-24T19:30:21.017Z,66.07
2018-05-24T19:33:23.063Z,66.57
2018-05-24T19:36:25.055Z,66.54
2018-05-24T19:39:27.192Z,67.09
2018-05-24T19:42:29.379Z,68.21
2018-05-24T19:45:31.559Z,69.17
2018-05-24T19:48:33.816Z,70.17
2018-05-24T19:51:36.095Z,70.33
2018-05-24T19:54:38.969Z,70.16
2018-05-24T19:57:41.041Z,70.19
2018-05-24T20:00:43.151Z,70.33
2018-05-24T20:03:45.426Z,70.51
2018-05-24T20:06:47.531Z,70.44
2018-05-24T20:09:49.658Z,70.12
2018-05-24T20:12:51.727Z,70.22
2018-05-24T20:15:55.861Z,69.70
2018-05-24T20:18:58.274Z,69.08
2018-05-24T20:22:00.357Z,68.69
2018-05-24T20:25:02.719Z,68.36
2018-05-24T20:28:04.982Z,68.11
2018-05-24T20:31:08.016Z,68.03
2018-05-24T20:34:10.040Z,68.12
2018-05-24T20:37:12.153Z,68.15
2018-05-24T20:40:14.248Z,68.10
2018-05-24T20:43:16.294Z,68.30
2018-05-24T20:46:18.771Z,68.54
2018-05-24T20:49:20.955Z,68.54
2018-05-24T20:52:23.007Z,68.79
2018-05-24T20:55:25.042Z,69.40
2018-05-24T20:58:28.188Z,69.63
2018-05-24T21:01:30.255Z,69.46
2018-05-24T21:04:32.281Z,69.76
2018-05-24T21:07:34.472Z,69.79
2018-05-24T21:10:36.552Z,70.56
2018-05-24T21:13:39.343Z,70.93
2018-05-24T21:16:41.484Z,71.77
2018-05-24T21:19:43.512Z,71.59
2018-05-24T21:22:45.629Z,71.02
2018-05-24T21:25:47.707Z,72.49
2018-05-24T21:28:49.881Z,72.83
2018-05-24T21:31:53.336Z,73.37
2018-05-24T21:34:55.344Z,73.75
2018-05-24T21:37:57.831Z,74.26
2018-05-24T21:41:01.508Z,74.05
2018-05-24T21:44:03.721Z,74.03
2018-05-24T21:47:05.732Z,74.55
2018-05-24T21:50:08.796Z,73.86
2018-05-24T21:53:10.855Z,74.09
2018-05-24T21:56:12.851Z,74.01
2018-05-24T21:59:15.968Z,74.83
2018-05-24T22:02:18.044Z,74.22
2018-05-24T22:05:20.037Z,74.36
2018-05-24T22:08:21.962Z,73.76
2018-05-24T22:11:24.044Z,74.86
2018-05-24T22:14:26.121Z,75.66
2018-05-24T22:17:29.000Z,75.82
2018-05-24T22:20:31.084Z,75.93
2018-05-24T22:23:34.932Z,76.52
2018-05-24T22:26:37.051Z,76.39
2018-05-24T22:29:44.681Z,75.68
2018-05-24T22:32:46.759Z,76.21
2018-05-24T22:35:48.779Z,76.33
2018-05-24T22:38:50.835Z,76.13
2018-05-24T22:41:53.154Z,74.93
2018-05-24T22:44:55.174Z,76.77
2018-05-24T22:47:57.300Z,77.00
2018-05-24T22:50:59.349Z,77.43
2018-05-24T22:54:01.492Z,78.15
2018-05-24T22:57:03.560Z,78.17
2018-05-24T23:00:05.668Z,77.65
2018-05-24T23:03:07.711Z,77.61
2018-05-24T23:06:10.909Z,77.74
2018-05-24T23:09:12.988Z,77.56
2018-05-24T23:12:15.065Z,77.66
2018-05-24T23:15:17.213Z,77.18
2018-05-24T23:18:19.305Z,77.56
2018-05-24T23:21:21.352Z,77.57
2018-05-24T23:24:28.280Z,76.16
2018-05-24T23:27:30.431Z,77.21
2018-05-24T23:30:32.469Z,77.55
2018-05-24T23:33:34.667Z,78.18
2018-05-24T23:36:36.745Z,78.21
2018-05-24T23:39:40.036Z,77.55
2018-05-24T23:42:42.100Z,78.34
2018-05-24T23:45:44.155Z,77.96
2018-05-24T23:48:46.262Z,78.04
2018-05-24T23:51:48.331Z,78.06
2018-05-24T23:54:50.333Z,77.81
2018-05-24T23:57:52.500Z,77.55
